Cambridge, Canada
Current Conditions -  °F | °C
As of 5:00 PM on Sunday 21 Dec 2014 (Local Time) from CYKF Reporting Station
Few Clouds Few Clouds  
Wind Chill: 19°   Ceiling: Unl
Heat Index: 25°   Visibility: 9mi
Dew Point: 19°   Wind: 5mph
Humidity: 80%   Direction: 100°E
Pressure: 30.25"   Gusts: NA
Location:  43.38°N, 80.32°W
Report Text: CYKF 212200Z AUTO 10004KT 9SM FEW025 M04/M07 A3025 RMK SLP260
Loading
Personal Weather Stations






























Interactive Weather Map New forecast layout! Learn more

10-Day Weather Forecast

Advertisements
Track Severe Weather on mobile